Time;durP1;ratioP1;P1;durP2;ratioP2;P2;SDS_P1;SDS_P2;PMS_P1;PMS_P2;Temp;Humidity;BMP_temperature;BMP_pressure;BME280_temperature;BME280_humidity;BME280_pressure;Samples;Min_cycle;Max_cycle;Signal;HPM_P1;HPM_P2
2022/04/27 00:01:49;;;;;;;;;;;384.00;2329.60;;;;;;5117661;28;19990;-73
2022/04/27 00:04:14;;;;;;;;;;;384.00;2329.60;;;;;;5119024;28;19990;-72
2022/04/27 00:06:40;;;;;;;;;;;384.00;2329.60;;;;;;5101233;28;20308;-72
2022/04/27 00:09:06;;;;;;;;;;;384.10;2329.60;;;;;;5118196;28;20023;-72
2022/04/27 00:11:32;;;;;;;;;;;359.30;2329.60;;;;;;5118111;28;19904;-72
2022/04/27 00:14:00;;;;;;;;;;;359.10;2329.60;;;;;;5118082;28;19957;-72
2022/04/27 00:16:27;;;;;;;;;;;359.10;2329.60;;;;;;5117981;28;19910;-75
2022/04/27 00:18:52;;;;;;;;;;;359.30;2329.60;;;;;;5117912;28;19912;-76
2022/04/27 00:21:18;;;;;;;;;;;359.30;2329.60;;;;;;5117886;28;19903;-74
2022/04/27 00:23:44;;;;;;;;;;;359.20;2329.60;;;;;;5099592;28;20276;-73
2022/04/27 00:26:09;;;;;;;;;;;359.10;2329.60;;;;;;5117895;28;19931;-74
2022/04/27 00:28:35;;;;;;;;;;;359.20;2329.60;;;;;;5117677;28;19911;-76
2022/04/27 00:31:01;;;;;;;;;;;359.20;2329.60;;;;;;5118385;28;19911;-73
2022/04/27 00:33:27;;;;;;;;;;;359.20;2329.60;;;;;;5117690;28;19904;-75
2022/04/27 00:35:52;;;;;;;;;;;359.10;2329.60;;;;;;5117506;28;19922;-72
2022/04/27 00:38:18;;;;;;;;;;;359.10;2329.60;;;;;;5117499;28;19954;-76
2022/04/27 00:40:44;;;;;;;;;;;359.10;2329.60;;;;;;5099174;28;19908;-76
2022/04/27 00:43:12;;;;;;;;;;;359.10;2329.60;;;;;;5117874;28;19911;-74
2022/04/27 00:45:38;;;;;;;;;;;359.10;2329.60;;;;;;5099148;28;20356;-75
2022/04/27 00:48:04;;;;;;;;;;;359.10;2329.60;;;;;;5117436;28;19911;-74
2022/04/27 00:50:30;;;;;;;;;;;359.20;2329.60;;;;;;5099005;28;19904;-76
2022/04/27 00:52:55;;;;;;;;;;;359.20;2329.60;;;;;;5117424;28;19904;-76
2022/04/27 00:55:21;;;;;;;;;;;359.20;2329.60;;;;;;5098907;28;20237;-75
2022/04/27 00:57:47;;;;;;;;;;;359.20;2329.60;;;;;;5098853;28;20267;-77
2022/04/27 01:00:14;;;;;;;;;;;359.20;2329.60;;;;;;5098789;28;20431;-76
2022/04/27 01:02:40;;;;;;;;;;;359.20;2329.60;;;;;;5117187;28;19914;-76
2022/04/27 01:05:09;;;;;;;;;;;359.10;2329.60;;;;;;5098846;28;19910;-74
2022/04/27 01:07:36;;;;;;;;;;;359.10;2329.60;;;;;;5098823;28;19958;-79
2022/04/27 01:10:02;;;;;;;;;;;359.10;2329.60;;;;;;5098727;28;19904;-74
2022/04/27 01:12:28;;;;;;;;;;;359.10;2329.60;;;;;;5098249;28;20037;-74
2022/04/27 01:14:53;;;;;;;;;;;359.10;2329.60;;;;;;5098455;28;19911;-73
2022/04/27 01:17:20;;;;;;;;;;;359.10;2329.60;;;;;;5098586;28;20353;-74
2022/04/27 01:19:46;;;;;;;;;;;359.10;2329.60;;;;;;5116814;28;20283;-76
2022/04/27 01:22:12;;;;;;;;;;;359.10;2329.60;;;;;;5117103;28;19911;-74
2022/04/27 01:24:38;;;;;;;;;;;359.20;2329.60;;;;;;5098441;28;19903;-74
2022/04/27 01:27:03;;;;;;;;;;;359.20;2329.60;;;;;;5116708;28;20374;-74
2022/04/27 01:29:30;;;;;;;;;;;359.20;2329.60;;;;;;5116599;28;19915;-74
2022/04/27 01:32:00;;;;;;;;;;;359.30;2329.60;;;;;;5098319;28;19946;-77
2022/04/27 01:34:26;;;;;;;;;;;359.30;2329.60;;;;;;5098043;28;20267;-74
2022/04/27 01:36:54;;;;;;;;;;;359.30;2329.60;;;;;;5116835;28;19904;-74
2022/04/27 01:39:23;;;;;;;;;;;359.20;2329.60;;;;;;5116392;28;19912;-74
2022/04/27 01:41:49;;;;;;;;;;;359.20;2329.60;;;;;;5116673;28;19930;-74
2022/04/27 01:44:15;;;;;;;;;;;359.20;2329.60;;;;;;5098059;28;20351;-75
2022/04/27 01:46:41;;;;;;;;;;;359.20;2329.60;;;;;;5098050;28;19907;-73
2022/04/27 01:49:07;;;;;;;;;;;359.20;2329.60;;;;;;5097988;28;19904;-76
2022/04/27 01:54:17;;;;;;;;;;;359.10;2329.60;;;;;;5116850;28;19910;-74
2022/04/27 01:56:47;;;;;;;;;;;359.00;2329.60;;;;;;5116091;28;20279;-77
2022/04/27 01:59:13;;;;;;;;;;;359.00;2329.60;;;;;;5097677;28;20284;-75
2022/04/27 02:01:39;;;;;;;;;;;359.00;2329.60;;;;;;5116027;28;19904;-74
2022/04/27 02:04:04;;;;;;;;;;;358.90;2329.60;;;;;;5115939;28;19910;-74
2022/04/27 02:06:30;;;;;;;;;;;358.90;2329.60;;;;;;5115931;28;19904;-75
2022/04/27 02:08:56;;;;;;;;;;;358.90;2329.60;;;;;;5115882;28;19908;-74
2022/04/27 02:11:25;;;;;;;;;;;358.90;2329.60;;;;;;5116091;28;19994;-74
2022/04/27 02:13:54;;;;;;;;;;;358.90;2329.60;;;;;;5115763;28;19949;-74
2022/04/27 02:16:26;;;;;;;;;;;358.90;2329.60;;;;;;5115784;28;19910;-74
2022/04/27 02:18:52;;;;;;;;;;;358.90;2329.60;;;;;;5115663;28;19943;-74
2022/04/27 02:21:20;;;;;;;;;;;358.90;2329.60;;;;;;5115564;28;20022;-74
2022/04/27 02:23:46;;;;;;;;;;;359.00;2329.60;;;;;;5097237;28;19904;-77
2022/04/27 02:26:11;;;;;;;;;;;358.90;2329.60;;;;;;5114561;28;20002;-75
2022/04/27 02:28:37;;;;;;;;;;;358.90;2329.60;;;;;;5115639;28;19904;-74
2022/04/27 02:31:03;;;;;;;;;;;358.90;2329.60;;;;;;5097119;28;20360;-78
2022/04/27 02:33:30;;;;;;;;;;;358.90;2329.60;;;;;;5115624;28;19907;-77
2022/04/27 02:35:56;;;;;;;;;;;358.90;2329.60;;;;;;5096904;28;19922;-76
2022/04/27 02:38:22;;;;;;;;;;;358.90;2329.60;;;;;;5096887;28;19908;-75
2022/04/27 02:40:47;;;;;;;;;;;358.90;2329.60;;;;;;5115153;28;19908;-76
2022/04/27 02:43:14;;;;;;;;;;;358.70;2329.60;;;;;;5115214;28;19903;-76
2022/04/27 02:45:41;;;;;;;;;;;358.50;2329.60;;;;;;5115163;28;19907;-75
2022/04/27 02:48:07;;;;;;;;;;;358.50;2329.60;;;;;;5115107;28;20286;-76
2022/04/27 02:53:17;;;;;;;;;;;358.60;2329.60;;;;;;5115416;28;19910;-77
2022/04/27 02:55:43;;;;;;;;;;;358.80;2329.60;;;;;;5096717;28;19904;-76
2022/04/27 02:58:09;;;;;;;;;;;358.90;2329.60;;;;;;5114762;28;19942;-76
2022/04/27 03:00:34;;;;;;;;;;;359.00;2329.60;;;;;;5096617;28;20343;-74
2022/04/27 03:03:00;;;;;;;;;;;359.00;2329.60;;;;;;5096573;28;19910;-74
2022/04/27 03:05:26;;;;;;;;;;;359.00;2329.60;;;;;;5115095;28;19965;-74
2022/04/27 03:07:52;;;;;;;;;;;358.90;2329.60;;;;;;5096542;28;19904;-74
2022/04/27 03:10:17;;;;;;;;;;;359.00;2329.60;;;;;;5114726;28;19904;-76
2022/04/27 03:12:43;;;;;;;;;;;359.10;2329.60;;;;;;5114752;28;19904;-76
2022/04/27 03:15:09;;;;;;;;;;;359.10;2329.60;;;;;;5096380;28;20260;-77
2022/04/27 03:17:35;;;;;;;;;;;359.10;2329.60;;;;;;5096341;28;19907;-74
2022/04/27 03:20:00;;;;;;;;;;;359.10;2329.60;;;;;;5114545;28;20356;-75
2022/04/27 03:22:26;;;;;;;;;;;359.10;2329.60;;;;;;5096257;28;19926;-74
2022/04/27 03:24:52;;;;;;;;;;;359.10;2329.60;;;;;;5114648;28;19911;-73
2022/04/27 03:27:17;;;;;;;;;;;359.10;2329.60;;;;;;5114763;28;19903;-78
2022/04/27 03:29:43;;;;;;;;;;;359.10;2329.60;;;;;;5114449;28;19926;-74
2022/04/27 03:32:12;;;;;;;;;;;359.00;2329.60;;;;;;5114451;28;20052;-74
2022/04/27 03:34:37;;;;;;;;;;;359.10;2329.60;;;;;;5114206;28;19914;-73
2022/04/27 03:37:03;;;;;;;;;;;359.10;2329.60;;;;;;5114076;28;19904;-76
2022/04/27 03:39:29;;;;;;;;;;;359.10;2329.60;;;;;;5095977;28;20306;-75
2022/04/27 03:41:57;;;;;;;;;;;359.20;2329.60;;;;;;5114571;28;19904;-74
2022/04/27 03:44:22;;;;;;;;;;;359.20;2329.60;;;;;;5096092;28;19911;-74
2022/04/27 03:46:48;;;;;;;;;;;359.20;2329.60;;;;;;5114295;28;19904;-76
2022/04/27 03:49:14;;;;;;;;;;;359.10;2329.60;;;;;;5096004;28;19903;-74
2022/04/27 03:51:40;;;;;;;;;;;358.90;2329.60;;;;;;5096213;28;19915;-74
2022/04/27 03:54:05;;;;;;;;;;;358.80;2329.60;;;;;;5114206;28;19903;-73
2022/04/27 03:56:31;;;;;;;;;;;358.80;2329.60;;;;;;5114268;28;19927;-73
2022/04/27 03:58:57;;;;;;;;;;;358.80;2329.60;;;;;;5114068;28;20390;-74
2022/04/27 04:01:23;;;;;;;;;;;358.70;2329.60;;;;;;5095897;28;20289;-74
2022/04/27 04:03:49;;;;;;;;;;;358.70;2329.60;;;;;;5114145;28;19908;-73
2022/04/27 04:06:15;;;;;;;;;;;358.70;2329.60;;;;;;5114118;28;19904;-74
2022/04/27 04:08:40;;;;;;;;;;;358.70;2329.60;;;;;;5095860;28;19983;-74
2022/04/27 04:11:06;;;;;;;;;;;358.60;2329.60;;;;;;5113940;28;19904;-74
2022/04/27 04:13:32;;;;;;;;;;;358.70;2329.60;;;;;;5114033;28;19992;-74
2022/04/27 04:15:57;;;;;;;;;;;358.70;2329.60;;;;;;5114044;28;19911;-74
2022/04/27 04:18:23;;;;;;;;;;;358.70;2329.60;;;;;;5113865;28;19915;-76
2022/04/27 04:20:49;;;;;;;;;;;358.70;2329.60;;;;;;5095646;28;20026;-74
2022/04/27 04:23:14;;;;;;;;;;;358.80;2329.60;;;;;;5094900;28;19908;-75
2022/04/27 04:28:30;;;;;;;;;;;358.80;2329.60;;;;;;5112030;28;19960;-76
2022/04/27 04:30:56;;;;;;;;;;;358.90;2329.60;;;;;;5110612;28;19911;-76
2022/04/27 04:33:22;;;;;;;;;;;358.90;2329.60;;;;;;5112363;28;19903;-76
2022/04/27 04:35:48;;;;;;;;;;;358.70;2329.60;;;;;;5093877;28;19915;-76
2022/04/27 04:38:14;;;;;;;;;;;358.80;2329.60;;;;;;5112195;28;19903;-76
2022/04/27 04:40:40;;;;;;;;;;;358.90;2329.60;;;;;;5094060;28;20284;-74
2022/04/27 04:43:06;;;;;;;;;;;358.80;2329.60;;;;;;5112940;28;19908;-74
2022/04/27 04:45:31;;;;;;;;;;;358.70;2329.60;;;;;;5113551;28;19946;-74
2022/04/27 04:47:57;;;;;;;;;;;358.80;2329.60;;;;;;5095976;28;19907;-75
2022/04/27 04:50:23;;;;;;;;;;;358.80;2329.60;;;;;;5117046;28;19911;-75
2022/04/27 04:52:49;;;;;;;;;;;358.90;2329.60;;;;;;5115394;28;19907;-75
2022/04/27 04:55:14;;;;;;;;;;;359.00;2329.60;;;;;;5115704;28;19919;-75
2022/04/27 04:57:40;;;;;;;;;;;359.00;2329.60;;;;;;5116919;28;19950;-75
2022/04/27 05:00:08;;;;;;;;;;;359.00;2329.60;;;;;;5098538;28;19912;-75
2022/04/27 05:02:34;;;;;;;;;;;358.90;2329.60;;;;;;5115735;28;19942;-75
2022/04/27 05:05:02;;;;;;;;;;;358.90;2329.60;;;;;;5116227;28;19907;-74
2022/04/27 05:07:34;;;;;;;;;;;358.90;2329.60;;;;;;5098767;28;19919;-75
2022/04/27 05:10:00;;;;;;;;;;;359.00;2329.60;;;;;;5116722;28;20316;-75
2022/04/27 05:12:26;;;;;;;;;;;359.10;2329.60;;;;;;5116300;28;19991;-76
2022/04/27 05:14:52;;;;;;;;;;;359.20;2329.60;;;;;;5116054;28;20279;-76
2022/04/27 05:17:18;;;;;;;;;;;359.10;2329.60;;;;;;5098406;28;19904;-75
2022/04/27 05:19:44;;;;;;;;;;;359.30;2329.60;;;;;;5098352;28;19919;-75
2022/04/27 05:22:09;;;;;;;;;;;384.10;2329.60;;;;;;5103393;28;19917;-75
2022/04/27 05:24:35;;;;;;;;;;;384.10;2329.60;;;;;;5098179;28;20002;-78
2022/04/27 05:27:01;;;;;;;;;;;384.00;2329.60;;;;;;5116049;28;20368;-75
2022/04/27 05:32:12;;;;;;;;;;;384.10;2329.60;;;;;;5115072;28;19914;-78
2022/04/27 05:34:37;;;;;;;;;;;384.10;2329.60;;;;;;5096483;28;19907;-78
2022/04/27 05:37:03;;;;;;;;;;;384.20;2329.60;;;;;;5114959;28;20256;-76
2022/04/27 05:39:29;;;;;;;;;;;384.10;2329.60;;;;;;5096662;28;20418;-76
2022/04/27 05:41:55;;;;;;;;;;;384.10;2329.60;;;;;;5115906;28;19954;-75
2022/04/27 05:44:24;;;;;;;;;;;384.40;2329.60;;;;;;5115512;28;20306;-75
2022/04/27 05:46:50;;;;;;;;;;;384.50;2329.60;;;;;;5115397;28;19911;-75
2022/04/27 05:49:16;;;;;;;;;;;384.60;2329.60;;;;;;5096320;28;19998;-77
2022/04/27 05:51:43;;;;;;;;;;;384.60;2329.60;;;;;;5114723;28;19991;-75
2022/04/27 05:54:09;;;;;;;;;;;384.70;2329.60;;;;;;5114729;28;19904;-78
2022/04/27 05:56:34;;;;;;;;;;;384.70;2329.60;;;;;;5114647;28;19939;-77
2022/04/27 05:59:01;;;;;;;;;;;384.80;2329.60;;;;;;5114221;28;19954;-77
2022/04/27 06:01:27;;;;;;;;;;;384.90;2329.60;;;;;;5096175;28;20371;-78
2022/04/27 06:03:53;;;;;;;;;;;409.60;2355.20;;;;;;5096155;28;19946;-76
2022/04/27 06:06:19;;;;;;;;;;;409.60;2355.20;;;;;;5114418;28;19907;-79
2022/04/27 06:08:45;;;;;;;;;;;409.60;2355.20;;;;;;5096198;28;19903;-75
2022/04/27 06:11:10;;;;;;;;;;;409.60;2355.20;;;;;;5114315;28;19904;-76
2022/04/27 06:13:36;;;;;;;;;;;409.70;2355.20;;;;;;5114268;28;20356;-75
2022/04/27 06:16:02;;;;;;;;;;;409.90;2355.20;;;;;;5095918;28;19954;-77
2022/04/27 06:18:27;;;;;;;;;;;409.90;2355.20;;;;;;5114811;28;19915;-77
2022/04/27 06:20:53;;;;;;;;;;;410.10;2355.20;;;;;;5114194;28;19992;-76
2022/04/27 06:23:19;;;;;;;;;;;409.80;2355.20;;;;;;5095760;28;19918;-78
2022/04/27 06:25:48;;;;;;;;;;;409.80;2355.20;;;;;;5113828;28;19987;-78
2022/04/27 06:28:14;;;;;;;;;;;409.80;2355.20;;;;;;5111419;28;19986;-75
2022/04/27 06:30:40;;;;;;;;;;;409.90;2355.20;;;;;;5096567;28;19994;-75
2022/04/27 06:33:05;;;;;;;;;;;409.90;2355.20;;;;;;5095628;28;19911;-76
2022/04/27 06:35:31;;;;;;;;;;;410.20;2355.20;;;;;;5113846;28;19923;-75
2022/04/27 06:37:57;;;;;;;;;;;410.40;2355.20;;;;;;5095811;28;19903;-77
2022/04/27 06:40:24;;;;;;;;;;;410.50;2355.20;;;;;;5114315;28;19918;-77
2022/04/27 06:42:51;;;;;;;;;;;410.50;2355.20;;;;;;5114184;28;19907;-77
2022/04/27 06:45:17;;;;;;;;;;;435.40;2355.20;;;;;;5114237;28;19908;-76
2022/04/27 06:47:42;;;;;;;;;;;435.50;2355.20;;;;;;5111158;28;19911;-76
2022/04/27 06:50:11;;;;;;;;;;;435.60;2355.20;;;;;;5092944;28;19939;-77
2022/04/27 06:52:47;;;;;;;;;;;435.70;2355.20;;;;;;5091301;28;19950;-77
2022/04/27 06:55:14;;;;;;;;;;;435.70;2355.20;;;;;;5110790;28;20275;-77
2022/04/27 06:57:39;;;;;;;;;;;435.80;2355.20;;;;;;5094506;28;20471;-76
2022/04/27 07:00:05;;;;;;;;;;;460.80;2380.80;;;;;;5112750;28;20003;-76
2022/04/27 07:02:32;;;;;;;;;;;461.00;2380.80;;;;;;5112352;28;20313;-75
2022/04/27 07:05:01;;;;;;;;;;;461.30;2380.80;;;;;;5093598;28;19953;-76
2022/04/27 07:07:29;;;;;;;;;;;461.30;2380.80;;;;;;5111545;28;19951;-76
2022/04/27 07:09:56;;;;;;;;;;;461.70;2380.80;;;;;;5092973;28;20364;-77
2022/04/27 07:12:22;;;;;;;;;;;486.40;2380.80;;;;;;5093038;28;19904;-77
2022/04/27 07:14:54;;;;;;;;;;;486.50;2380.80;;;;;;5093994;28;19949;-77
2022/04/27 07:17:19;;;;;;;;;;;486.60;2380.80;;;;;;5110425;28;19907;-77
2022/04/27 07:19:45;;;;;;;;;;;461.70;2380.80;;;;;;5093924;28;19968;-77
2022/04/27 07:22:12;;;;;;;;;;;486.70;2380.80;;;;;;5091900;28;20374;-77
2022/04/27 07:24:38;;;;;;;;;;;487.20;2380.80;;;;;;5093759;28;20286;-76
2022/04/27 07:27:04;;;;;;;;;;;487.10;2380.80;;;;;;5112001;28;19949;-78
2022/04/27 07:29:30;;;;;;;;;;;486.80;2380.80;;;;;;5112502;28;19961;-77
2022/04/27 07:31:55;;;;;;;;;;;486.80;2380.80;;;;;;5094098;28;20268;-77
2022/04/27 07:34:21;;;;;;;;;;;486.50;2380.80;;;;;;5112437;28;19904;-77
2022/04/27 07:36:47;;;;;;;;;;;486.40;2380.80;;;;;;5111749;28;20364;-77
2022/04/27 07:39:12;;;;;;;;;;;486.60;2380.80;;;;;;5094135;28;19915;-77
2022/04/27 07:41:38;;;;;;;;;;;486.80;2380.80;;;;;;5111939;28;19911;-77
2022/04/27 07:44:06;;;;;;;;;;;486.90;2380.80;;;;;;5094353;28;20481;-77
2022/04/27 07:46:32;;;;;;;;;;;486.90;2380.80;;;;;;5093989;28;19939;-77
2022/04/27 07:48:57;;;;;;;;;;;487.00;2380.80;;;;;;5112364;28;20000;-76
2022/04/27 07:51:23;;;;;;;;;;;512.00;2380.80;;;;;;5112312;28;19904;-81
2022/04/27 07:53:49;;;;;;;;;;;512.50;2380.80;;;;;;5112394;28;19903;-77
2022/04/27 07:56:14;;;;;;;;;;;512.60;2380.80;;;;;;5100402;28;19965;-76
2022/04/27 07:58:40;;;;;;;;;;;512.40;2380.80;;;;;;5097975;28;19908;-77
2022/04/27 08:01:05;;;;;;;;;;;512.20;2380.80;;;;;;5111455;28;19908;-76
2022/04/27 08:03:31;;;;;;;;;;;512.10;2380.80;;;;;;5111419;28;19910;-76
2022/04/27 08:05:57;;;;;;;;;;;487.20;2380.80;;;;;;5101469;28;19904;-77
2022/04/27 08:08:23;;;;;;;;;;;487.10;2380.80;;;;;;5110939;28;19904;-76
2022/04/27 08:10:48;;;;;;;;;;;512.00;2380.80;;;;;;5111701;28;19912;-77
2022/04/27 08:13:15;;;;;;;;;;;487.30;2380.80;;;;;;5111828;28;19947;-76
2022/04/27 08:15:40;;;;;;;;;;;512.00;2380.80;;;;;;5112148;28;19904;-76
2022/04/27 08:18:07;;;;;;;;;;;538.30;2406.40;;;;;;5093840;28;19910;-75
2022/04/27 08:23:20;;;;;;;15.73;12.52;;;589.70;2380.80;;;;;;5112813;28;20077;-78
2022/04/27 08:25:47;;;;;;;10.18;8.05;;;614.40;2252.80;;;;;;5095940;28;20858;-78
2022/04/27 08:28:13;;;;;;;10.90;9.55;;;589.60;2201.60;;;;;;5115468;28;20069;-77
2022/04/27 08:30:43;;;;;;;;;;;614.70;2124.80;;;;;;5097392;28;20027;-78
2022/04/27 08:33:10;;;;;;;;;;;614.70;2124.80;;;;;;5115183;28;19962;-77
2022/04/27 08:35:38;;;;;;;;;;;614.50;2176.00;;;;;;5115062;28;20293;-78
2022/04/27 08:38:05;;;;;;;;;;;589.50;2176.00;;;;;;5115661;28;20343;-75
2022/04/27 08:40:31;;;;;;;;;;;589.20;2150.40;;;;;;5097337;28;20283;-76
2022/04/27 08:42:57;;;;;;;;;;;564.00;2176.00;;;;;;5115274;28;19910;-75
2022/04/27 08:45:23;;;;;;;;;;;563.80;2176.00;;;;;;5097528;28;19904;-75
2022/04/27 08:47:49;;;;;;;;;;;538.50;2176.00;;;;;;5115327;28;20279;-75
2022/04/27 08:50:17;;;;;;;;;;;538.00;2252.80;;;;;;5114887;28;20379;-77
2022/04/27 08:52:43;;;;;;;;;;;537.90;2252.80;;;;;;5114698;28;19904;-77
2022/04/27 08:55:09;;;;;;;;;;;538.30;2304.00;;;;;;5114851;28;19903;-77
2022/04/27 08:57:35;;;;;;;;;;;563.30;2304.00;;;;;;5115068;28;19926;-75
2022/04/27 09:00:01;;;;;;;;;;;563.80;2227.20;;;;;;5097094;28;20352;-75
2022/04/27 09:02:27;;;;;;;;;;;588.80;2201.60;;;;;;5096855;28;19908;-75
2022/04/27 09:05:09;;;;;;;;;;;564.00;2176.00;;;;;;5115033;28;20275;-75
2022/04/27 09:07:36;;;;;;;;;;;563.70;2227.20;;;;;;5115276;28;20245;-78
2022/04/27 09:10:02;;;;;;;;;;;563.40;2278.40;;;;;;5114985;28;19903;-75
2022/04/27 09:12:28;;;;;;;;;;;563.20;2278.40;;;;;;5096794;28;19907;-76
2022/04/27 09:14:58;;;;;;;;;;;538.50;2150.40;;;;;;5113416;28;19914;-78
2022/04/27 09:22:58;;;;;;;;;;;538.20;2201.60;;;;;;5111640;28;19927;-76
2022/04/27 09:25:31;;;;;;;;;;;538.20;2252.80;;;;;;5114560;28;20356;-77
2022/04/27 09:27:59;;;;;;;;;;;538.20;2227.20;;;;;;5095212;28;20042;-79
2022/04/27 09:30:28;;;;;;;;;;;537.90;2227.20;;;;;;5092265;28;20404;-76
2022/04/27 09:32:53;;;;;;;;;;;537.80;2252.80;;;;;;5113647;28;19903;-79
2022/04/27 09:35:30;;;;;;;;;;;512.90;2329.60;;;;;;5113880;28;20060;-76
2022/04/27 09:37:55;;;;;;;;;;;512.80;2304.00;;;;;;5114396;28;19911;-78
2022/04/27 09:40:21;;;;;;;;;;;512.50;2380.80;;;;;;5114494;28;19912;-76
2022/04/27 09:42:47;;;;;;;;;;;512.70;2380.80;;;;;;5113792;28;19910;-77
2022/04/27 09:45:16;;;;;;;;;;;512.80;2380.80;;;;;;5096192;28;20083;-78
2022/04/27 09:47:49;;;;;;;;;;;512.90;2380.80;;;;;;5113989;28;19949;-76
2022/04/27 09:50:15;;;;;;;;;;;537.60;2406.40;;;;;;5114251;28;19903;-74
2022/04/27 09:52:43;;;;;;;37.20;27.80;;;512.70;2329.60;;;;;;5113288;28;19907;-77
2022/04/27 09:55:10;;;;;;;16.17;13.07;;;537.70;2329.60;;;;;;5113692;28;20111;-77
2022/04/27 09:57:40;;;;;;;11.90;10.82;;;538.00;2329.60;;;;;;5113623;28;20197;-77
2022/04/27 10:00:08;;;;;;;15.20;11.05;;;537.80;2304.00;;;;;;5113522;28;20392;-76
2022/04/27 10:02:35;;;;;;;12.63;11.23;;;512.60;2380.80;;;;;;5113601;28;20019;-75
2022/04/27 10:05:01;;;;;;;13.20;12.00;;;512.30;2380.80;;;;;;5113058;28;20041;-77
2022/04/27 10:07:31;;;;;;;14.70;12.65;;;512.50;2380.80;;;;;;5113633;28;20085;-76
2022/04/27 10:09:58;;;;;;;14.77;13.18;;;512.40;2380.80;;;;;;5113151;28;20103;-77
2022/04/27 10:12:24;;;;;;;15.23;13.73;;;512.30;2380.80;;;;;;5113585;28;20020;-73
2022/04/27 10:14:50;;;;;;;20.20;16.15;;;512.30;2380.80;;;;;;5112720;28;20032;-76
2022/04/27 10:17:15;;;;;;;30.70;24.42;;;512.00;2380.80;;;;;;5112743;28;20023;-77
2022/04/27 10:19:49;;;;;;;17.67;15.93;;;512.00;2380.80;;;;;;5112456;28;20035;-73
2022/04/27 10:22:31;;;;;;;23.08;19.90;;;512.00;2380.80;;;;;;5112849;28;20047;-77
2022/04/27 10:25:03;;;;;;;;;;;512.00;2380.80;;;;;;5094784;28;20032;-77
2022/04/27 10:27:41;;;;;;;17.10;15.43;;;512.20;2380.80;;;;;;5094791;28;20343;-75
2022/04/27 10:30:09;;;;;;;23.95;17.95;;;512.10;2380.80;;;;;;5094317;28;20024;-77
2022/04/27 10:32:37;;;;;;;15.68;14.18;;;512.50;2380.80;;;;;;5112651;28;20039;-77
2022/04/27 10:35:17;;;;;;;14.98;13.57;;;512.60;2380.80;;;;;;5090405;28;20056;-77
2022/04/27 10:37:51;;;;;;;26.55;22.30;;;512.80;2380.80;;;;;;5088002;28;20020;-76
2022/04/27 10:40:41;;;;;;;15.10;13.68;;;537.60;2406.40;;;;;;5092105;28;20115;-77
2022/04/27 10:43:07;;;;;;;14.02;12.63;;;538.00;2406.40;;;;;;5089123;28;20058;-75
2022/04/27 10:45:41;;;;;;;14.05;12.70;;;538.30;2406.40;;;;;;5089763;28;20020;-76
2022/04/27 10:48:22;;;;;;;13.68;12.27;;;563.20;2432.00;;;;;;5089785;28;20030;-79
2022/04/27 10:50:55;;;;;;;13.60;11.80;;;563.70;2380.80;;;;;;5090579;28;20031;-76
2022/04/27 10:53:23;;;;;;;13.63;12.00;;;589.30;2278.40;;;;;;5089050;28;20039;-76
2022/04/27 10:55:56;;;;;;;12.98;11.77;;;589.40;2124.80;;;;;;5089889;28;20028;-77
2022/04/27 10:58:22;;;;;;;13.05;11.70;;;589.20;2201.60;;;;;;5071750;28;20505;-76
2022/04/27 11:01:03;;;;;;;14.15;12.68;;;564.10;2201.60;;;;;;5073827;28;20112;-76
2022/04/27 11:03:39;;;;;;;20.13;15.18;;;564.10;2176.00;;;;;;5071808;28;20028;-77
2022/04/27 11:06:06;;;;;;;14.25;9.05;;;589.00;2227.20;;;;;;5085196;28;20081;-76
2022/04/27 11:09:04;;;;;;;6.30;5.70;;;564.10;2073.60;;;;;;5089307;28;20118;-75
2022/04/27 11:11:31;;;;;;;10.10;9.05;;;563.80;2048.00;;;;;;5090253;28;20031;-76
2022/04/27 11:14:01;;;;;;;28.98;20.08;;;589.20;2022.40;;;;;;5089762;28;20016;-76
2022/04/27 11:16:27;;;;;;;33.08;26.02;;;589.40;2022.40;;;;;;5078687;28;20101;-77
2022/04/27 11:18:55;;;;;;;9.50;7.88;;;589.30;1920.00;;;;;;5072403;28;20472;-74
2022/04/27 11:21:24;;;;;;;9.85;8.43;;;589.40;1920.00;;;;;;5072265;28;20366;-78
2022/04/27 11:23:51;;;;;;;9.60;8.63;;;589.40;1996.80;;;;;;5072370;28;20032;-75
2022/04/27 11:26:17;;;;;;;11.20;9.48;;;589.20;1945.60;;;;;;5087515;28;20028;-77
2022/04/27 11:28:44;;;;;;;10.77;9.45;;;589.50;1945.60;;;;;;5072685;28;20020;-77
2022/04/27 11:31:11;;;;;;;10.60;9.63;;;589.50;1945.60;;;;;;5070830;28;20026;-78
2022/04/27 11:33:41;;;;;;;13.27;9.05;;;614.40;1894.40;;;;;;5071335;28;20036;-76
2022/04/27 11:36:27;;;;;;;11.40;10.20;;;614.50;1843.20;;;;;;5088820;28;20128;-77
2022/04/27 11:38:54;;;;;;;11.40;10.40;;;614.80;1817.60;;;;;;5092383;28;20511;-78
2022/04/27 11:41:23;;;;;;;10.90;9.90;;;614.80;1843.20;;;;;;5074409;28;20039;-77
2022/04/27 11:43:51;;;;;;;10.43;9.35;;;614.60;1843.20;;;;;;5107282;28;20424;-76
2022/04/27 11:46:19;;;;;;;11.30;8.43;;;589.70;1817.60;;;;;;5094109;28;20055;-76
2022/04/27 11:48:52;;;;;;;9.73;8.82;;;589.50;1868.80;;;;;;5112080;28;20022;-75
2022/04/27 11:51:18;;;;;;;;;;;614.60;1817.60;;;;;;5113224;28;20016;-76
2022/04/27 11:53:47;;;;;;;12.35;11.25;;;614.90;1868.80;;;;;;5112402;28;19910;-77
2022/04/27 11:56:14;;;;;;;10.82;9.90;;;615.10;1817.60;;;;;;5112396;28;20028;-77
2022/04/27 11:58:40;;;;;;;11.18;9.90;;;640.00;1766.40;;;;;;5096848;28;20038;-78
2022/04/27 12:01:05;;;;;;;12.63;10.80;;;615.20;1740.80;;;;;;5098754;28;20024;-78
2022/04/27 12:03:40;;;;;;;12.52;11.38;;;614.70;1817.60;;;;;;5116815;28;20026;-77
2022/04/27 12:06:07;;;;;;;12.15;11.02;;;589.70;1843.20;;;;;;5098474;28;20030;-78
2022/04/27 12:08:35;;;;;;;25.52;11.18;;;589.50;1843.20;;;;;;5116699;28;20024;-73
2022/04/27 12:11:01;;;;;;;10.85;9.75;;;588.90;1894.40;;;;;;5116410;28;20027;-76
2022/04/27 12:13:28;;;;;;;10.40;9.40;;;564.10;1920.00;;;;;;5116716;28;20028;-75
2022/04/27 12:15:55;;;;;;;12.05;10.82;;;589.00;1894.40;;;;;;5098005;28;20028;-78
2022/04/27 12:18:28;;;;;;;11.68;10.00;;;588.90;1920.00;;;;;;5116677;28;20610;-77
2022/04/27 12:20:58;;;;;;;11.15;10.07;;;588.90;1920.00;;;;;;5097963;28;20031;-79
2022/04/27 12:23:38;;;;;;;10.98;9.85;;;588.80;1920.00;;;;;;5116188;28;20023;-78
2022/04/27 12:26:04;;;;;;;8.95;8.15;;;564.00;1920.00;;;;;;5097857;28;20023;-82
2022/04/27 12:28:40;;;;;;;10.95;9.68;;;563.70;1894.40;;;;;;5116760;28;20020;-78
2022/04/27 12:31:08;;;;;;;11.35;8.80;;;563.50;1971.20;;;;;;5097526;28;20029;-76
2022/04/27 12:33:42;;;;;;;9.85;8.32;;;563.40;1971.20;;;;;;5116031;28;20376;-79
2022/04/27 12:39:11;;;;;;;9.10;8.20;;;563.20;1996.80;;;;;;5115941;28;20034;-79
2022/04/27 12:41:41;;;;;;;;;;;563.20;1996.80;;;;;;5098154;28;20076;-76
2022/04/27 12:44:12;;;;;;;14.60;13.30;;;563.30;1996.80;;;;;;5116163;28;19939;-79
2022/04/27 12:47:04;;;;;;;15.23;13.70;;;563.30;1996.80;;;;;;5097749;28;20024;-77
2022/04/27 12:49:44;;;;;;;16.10;14.40;;;563.60;1996.80;;;;;;5097526;28;20035;-79
2022/04/27 12:52:36;;;;;;;14.15;12.75;;;564.10;1996.80;;;;;;5097671;28;20055;-78
2022/04/27 12:55:21;;;;;;;13.85;12.02;;;589.10;1920.00;;;;;;5097527;28;20032;-77
2022/04/27 12:57:51;;;;;;;13.23;11.93;;;589.20;1894.40;;;;;;5115444;28;20029;-79
2022/04/27 13:00:45;;;;;;;11.82;10.73;;;589.40;1868.80;;;;;;5115164;28;20032;-77
2022/04/27 13:03:12;;;;;;;11.82;10.73;;;589.10;1868.80;;;;;;5115632;28;20028;-76
2022/04/27 13:05:43;;;;;;;12.13;11.02;;;564.10;1894.40;;;;;;5115302;28;20059;-75
2022/04/27 13:08:10;;;;;;;13.48;11.95;;;564.00;1945.60;;;;;;5115009;28;20027;-78
2022/04/27 13:13:24;;;;;;;15.60;13.95;;;563.40;1971.20;;;;;;5115937;28;20046;-76
2022/04/27 13:15:50;;;;;;;16.52;14.30;;;563.20;2022.40;;;;;;5115261;28;20076;-79
2022/04/27 13:18:17;;;;;;;17.58;13.95;;;563.20;2048.00;;;;;;5096759;28;20059;-79
2022/04/27 13:20:44;;;;;;;14.85;13.35;;;563.40;1996.80;;;;;;5115249;28;20027;-78
2022/04/27 13:23:11;;;;;;;15.77;12.85;;;588.80;1971.20;;;;;;5094382;28;20031;-77
2022/04/27 13:25:37;;;;;;;14.60;13.20;;;589.20;1894.40;;;;;;5076807;28;20024;-77
2022/04/27 13:28:03;;;;;;;15.85;14.32;;;589.20;1920.00;;;;;;5100109;28;20157;-76
2022/04/27 13:30:30;;;;;;;16.88;15.18;;;588.80;1920.00;;;;;;5096744;28;20080;-78
2022/04/27 13:32:56;;;;;;;16.45;14.75;;;588.90;1945.60;;;;;;5114220;28;20061;-77
2022/04/27 13:35:23;;;;;;;16.17;14.48;;;589.10;1894.40;;;;;;5115143;28;20466;-77
2022/04/27 13:37:49;;;;;;;17.25;15.45;;;564.10;1945.60;;;;;;5114641;28;20396;-73
2022/04/27 13:40:16;;;;;;;15.90;14.38;;;563.60;1971.20;;;;;;5114858;28;20085;-76